Estació municipal de Susqueda - Veïnat del Coll (La Selva, )

Consulta les dades en temps real de l'estació municipal de Susqueda - Veïnat del Coll





Hora UTC 12:00
Temperatura 16.6 ºC
Humitat 57.1 %
Pressió 1012.4 hPa
Pluja 0.1 mm
Velocitat vent 6.5 km/h
Direcció vent SW
Radiació solar 1004.0 W/m²

Dades diàries 2026-05-10



Hora UTC (hivern +1h; estiu +2h)
Temperatura (ºC) Humitat (%) Pressió (hPa) Velocitat vent (km/h) Precipitació (mm) Radiació solar (W/m²)
Hora UTC Aire Humitat Pressió Vel. Dir. Vel. Max Dir. Intent. màx 5 min. Rad. Sol.
00:05 8.0 99.4 1013.0 5.5 W 5.5 W 0.0 0.1
00:10 7.9 99.4 1013.0 3.6 WSW 10.6 WSW 0.0 0.1
00:15 7.8 99.3 1012.9 2.7 WSW 12.0 SW 0.0 0.1
00:20 7.8 99.3 1012.9 2.1 S 6.0 WSW 0.0 0.1
00:25 7.7 99.4 1012.8 2.3 SW 9.5 WNW 0.0 0.1
00:30 7.7 99.4 1012.8 1.9 SSW 6.4 S 0.0 0.1
00:35 7.8 99.5 1012.6 3.7 SW 9.2 WSW 0.0 0.1
00:40 7.7 99.4 1012.6 2.6 SSW 9.5 SSW 0.0 0.1
00:45 7.7 99.5 1012.3 3.3 SSW 11.6 SSW 0.0 0.1
00:50 7.7 99.5 1012.3 0.8 E 4.2 ESE 0.0 0.1
00:55 7.8 99.5 1012.3 3.3 ESE 10.9 SE 0.0 0.1
01:00 7.8 99.5 1012.3 2.9 E 8.8 NNE 0.0 0.1
01:05 7.7 99.4 1012.3 2.0 SSE 5.3 SSW 0.0 0.1
01:10 7.7 99.4 1012.3 4.6 SSW 9.2 WSW 0.0 0.1
01:15 7.7 99.4 1012.2 3.8 SSW 7.8 SSW 0.0 0.1
01:20 7.6 99.4 1012.2 4.9 SSW 10.6 SW 0.0 0.1
01:25 7.5 99.4 1012.1 3.7 SW 10.9 WSW 0.0 0.1
01:30 7.5 99.5 1012.1 3.5 WSW 10.6 W 0.0 0.1
01:35 7.6 99.6 1012.0 3.6 S 8.8 SW 0.0 0.1
01:40 7.6 99.6 1012.0 2.6 S 6.7 SSE 0.0 0.1
01:45 7.6 99.6 1011.9 4.0 SW 11.6 SW 0.0 0.1
01:50 7.6 99.6 1011.9 3.1 SW 7.4 SW 0.0 0.1
01:55 7.6 99.5 1011.8 3.7 WSW 9.2 SSW 0.0 0.1
02:00 7.6 99.5 1011.8 3.5 S 9.2 SW 0.0 0.1
02:05 7.6 99.5 1011.7 2.3 SSW 6.4 SSW 0.0 0.1
02:10 7.6 99.5 1011.7 3.6 SW 10.9 W 0.0 0.1
02:15 7.6 99.5 1011.5 4.9 SSW 8.5 SSW 0.0 0.1
02:20 7.6 99.5 1011.5 3.3 SW 9.5 W 0.0 0.1
02:25 7.6 99.5 1011.5 4.1 WSW 8.8 S 0.0 0.1
02:30 7.6 99.5 1011.5 3.3 SW 7.4 SW 0.0 0.1
02:35 7.6 99.5 1011.5 4.4 SW 9.2 SSW 0.0 0.1
02:40 7.6 99.5 1011.5 5.2 SSW 11.6 WSW 0.0 0.1
02:45 7.6 99.6 1011.4 5.3 SW 13.8 SSW 0.1 0.1
02:50 7.6 99.6 1011.4 6.1 S 16.6 SSW 0.0 0.1
02:55 7.6 99.6 1011.3 5.6 SSW 20.1 SSW 0.0 0.1
03:00 7.6 99.6 1011.3 8.9 SW 32.1 W 0.0 0.1
03:05 7.6 99.6 1011.1 7.9 SW 22.2 WNW 0.0 0.1
03:10 7.6 99.6 1011.1 9.2 SW 24.7 WSW 0.0 0.1
03:15 7.5 99.6 1010.9 8.3 SW 31.8 WSW 0.0 0.1
03:20 7.5 99.6 1010.9 8.1 SW 22.2 W 0.0 0.1
03:25 7.5 99.6 1011.1 8.3 SSW 22.6 W 0.0 0.1
03:30 7.5 99.7 1011.1 8.1 SW 25.4 SW 0.0 0.1
03:35 7.5 99.7 1011.0 8.6 SSW 27.5 S 0.0 0.1
03:40 7.6 99.7 1011.0 7.5 SSW 31.4 WSW 0.0 0.1
03:45 7.5 99.7 1011.1 4.9 SW 15.5 S 0.0 0.1
03:50 7.6 99.6 1011.1 7.9 SSW 21.2 SSW 0.0 0.1
03:55 7.5 99.7 1011.1 6.1 S 13.4 SSE 0.0 0.1
04:00 7.5 99.7 1011.1 5.8 SSW 13.1 SW 0.0 0.1
04:05 7.5 99.7 1011.1 4.9 S 10.9 SSW 0.0 0.1
04:10 7.5 99.7 1011.1 5.7 S 22.9 SE 0.0 0.1
04:15 7.5 99.6 1011.1 8.2 SSW 27.2 SW 0.0 0.2
04:20 7.5 99.7 1011.1 7.8 SSW 19.8 S 0.0 0.3
04:25 7.5 99.7 1011.0 6.4 SW 22.2 W 0.0 0.6
04:30 7.5 99.7 1011.0 7.7 SSW 30.3 W 0.0 1.1
04:35 7.4 99.7 1011.0 8.3 SSW 19.8 S 0.0 1.8
04:40 7.4 99.7 1011.0 6.6 S 19.8 S 0.0 4.8
04:45 7.4 99.7 1010.9 8.3 SSW 19.1 SSW 0.0 12.5
04:50 7.4 99.7 1010.9 6.2 SSW 18.0 W 0.0 19.2
04:55 7.4 99.7 1010.7 6.4 SW 21.5 SSW 0.0 30.0
05:00 7.4 99.7 1010.7 6.7 SW 27.5 WSW 0.0 36.5
05:05 7.5 99.7 1010.8 8.5 S 18.7 SW 0.0 51.9
05:10 7.5 99.7 1010.8 7.6 SSW 23.3 SW 0.0 68.0
05:15 7.5 99.7 1010.8 7.0 WSW 22.6 W 0.0 81.6
05:20 7.6 99.7 1010.8 7.4 SSW 17.6 S 0.0 73.6
05:25 7.6 99.7 1011.0 6.8 SSW 18.0 SSW 0.0 62.0
05:30 7.6 99.7 1011.0 9.1 SSW 20.5 SSW 0.0 67.2
05:35 7.6 99.7 1010.9 7.3 WSW 20.8 W 0.0 82.6
05:40 7.6 99.7 1010.9 7.0 SSW 19.4 SW 0.0 85.5
05:45 7.7 99.8 1011.1 4.8 SSW 16.6 W 0.0 95.4
05:50 7.7 99.7 1011.1 6.0 SW 17.6 W 0.0 108.2
05:55 7.6 99.7 1010.9 7.9 SW 30.0 W 0.0 127.0
06:00 7.7 99.7 1010.9 8.1 SW 24.3 SW 0.0 136.3
06:05 7.7 99.8 1011.0 8.0 SW 26.5 W 0.0 153.8
06:10 7.8 99.8 1011.0 5.8 SW 21.2 SSW 0.0 193.1
06:15 7.8 99.8 1011.0 6.8 WSW 25.1 W 0.0 254.9
06:20 7.9 99.8 1011.0 7.1 SW 24.3 W 0.0 201.4
06:25 7.8 99.7 1011.2 6.0 SW 18.7 S 0.0 241.1
06:30 8.0 99.8 1011.2 7.4 SW 19.1 S 0.0 298.7
06:35 8.0 99.8 1011.2 7.1 SW 22.6 SSW 0.0 259.4
06:40 8.3 99.8 1011.2 5.2 S 18.7 SE 0.0 293.3
06:45 8.4 99.8 1011.4 4.0 SE 15.5 SE 0.0 369.5
06:50 8.6 99.8 1011.4 4.8 SSW 11.6 SSW 0.0 401.2
06:55 8.6 99.8 1011.4 5.2 SW 14.1 S 0.0 417.7
07:00 8.7 99.8 1011.4 5.9 SW 16.2 WSW 0.0 406.7
07:05 8.6 99.7 1011.4 4.9 WSW 16.6 WNW 0.0 422.6
07:10 8.8 99.7 1011.4 4.5 WSW 20.5 WSW 0.0 458.5
07:15 8.9 99.7 1011.5 6.5 SW 21.5 SW 0.0 471.1
07:20 9.0 99.6 1011.5 5.4 SW 15.5 SSE 0.0 420.4
07:25 9.2 99.6 1011.5 4.1 SSW 13.1 W 0.0 465.3
07:30 9.1 99.5 1011.5 6.7 SSW 23.6 SSW 0.0 391.2
07:35 8.9 99.3 1011.6 6.1 SW 19.4 NW 0.0 340.8
07:40 8.9 99.3 1011.6 5.3 SW 17.6 W 0.0 429.2
07:45 8.9 99.4 1011.6 9.1 WSW 25.8 W 0.0 445.3
07:50 8.9 99.4 1011.6 6.5 WSW 27.2 WSW 0.0 451.5
07:55 9.0 99.5 1011.5 8.1 WSW 21.5 WSW 0.0 556.4
08:00 9.1 99.5 1011.5 6.7 SW 24.3 WSW 0.0 508.8
08:05 9.1 99.5 1011.6 8.1 WSW 24.7 W 0.0 548.0
08:10 9.2 99.4 1011.6 8.5 WSW 28.2 WSW 0.0 602.9
08:15 9.2 99.3 1011.6 10.4 WSW 28.6 W 0.0 604.6
08:20 9.3 99.3 1011.6 11.3 WSW 31.8 WSW 0.0 619.5
08:25 9.5 99.3 1011.7 10.0 WSW 26.8 WSW 0.0 677.9
08:30 9.6 99.2 1011.7 9.5 WSW 24.7 W 0.0 652.3
08:35 9.7 98.9 1011.7 10.1 WSW 27.2 WSW 0.0 692.2
08:40 9.7 98.7 1011.7 9.7 WSW 28.2 WSW 0.0 691.8
08:45 10.0 98.5 1011.8 11.8 WSW 27.9 SW 0.0 735.3
08:50 10.1 97.9 1011.8 9.5 W 27.9 W 0.0 743.9
08:55 10.4 97.6 1012.1 9.2 W 24.0 WNW 0.0 733.4
09:00 10.4 96.9 1012.1 11.0 W 28.2 WSW 0.0 760.5
09:05 10.6 96.3 1012.1 10.1 W 32.5 W 0.0 786.9
09:10 10.9 95.1 1012.1 8.7 W 30.0 WNW 0.0 753.1
09:15 11.1 92.2 1012.2 8.3 W 23.3 NW 0.0 818.0
09:20 11.3 91.0 1012.2 7.6 WNW 22.6 WNW 0.0 822.0
09:25 11.6 89.7 1012.3 8.1 W 20.5 W 0.0 831.0
09:30 11.7 89.8 1012.3 7.0 WNW 18.7 W 0.0 850.0
09:35 11.9 89.8 1012.4 6.6 W 19.4 WSW 0.0 847.0
09:40 12.2 88.7 1012.4 5.6 WNW 16.9 W 0.0 691.0
09:45 12.2 88.9 1012.5 5.3 NW 17.3 WSW 0.0 776.4
09:50 12.3 85.8 1012.5 6.6 W 22.2 NW 0.0 837.0
09:55 12.4 85.2 1012.6 7.2 W 19.8 WNW 0.0 857.0
10:00 12.8 84.5 1012.6 5.1 W 19.8 NNW 0.0 907.0
10:05 13.3 82.7 1012.6 4.8 W 15.2 WSW 0.0 816.0
10:10 13.1 81.6 1012.6 5.2 W 19.4 WSW 0.0 821.0
10:15 13.4 82.4 1012.7 2.9 NW 13.1 WNW 0.0 918.0
10:20 13.9 80.1 1012.7 5.4 W 19.1 SSW 0.0 944.0
10:25 14.2 77.0 1012.7 5.4 SW 18.7 SE 0.0 922.0
10:30 14.1 75.6 1012.7 5.8 W 19.4 WNW 0.0 885.0
10:35 13.9 76.3 1012.7 5.2 WNW 18.4 S 0.0 747.8
10:40 14.4 76.4 1012.7 3.9 ESE 15.2 ESE 0.0 881.0
10:45 14.4 71.4 1012.7 6.5 NNE 15.5 ENE 0.0 873.0
10:50 14.1 73.2 1012.7 4.0 S 13.8 SSW 0.0 671.9
10:55 14.4 70.6 1012.7 6.4 S 12.7 ENE 0.0 737.0
11:00 14.1 68.7 1012.7 4.8 SE 15.5 S 0.0 977.0
11:05 14.5 72.4 1012.7 4.5 NW 25.8 SSW 0.0 644.5
11:10 15.0 67.5 1012.7 3.6 ESE 10.6 SE 0.0 537.4
11:15 14.5 67.9 1012.7 2.9 NNE 8.8 WNW 0.0 678.4
11:20 14.9 66.9 1012.7 3.4 ESE 12.7 ENE 0.0 711.9
11:25 15.0 65.9 1012.5 3.7 NNE 9.5 WSW 0.0 583.9
11:30 14.7 67.6 1012.5 3.1 WSW 9.2 NW 0.0 851.0
11:35 14.9 64.9 1012.5 4.4 S 11.3 S 0.0 888.0
11:40 15.3 65.4 1012.5 4.1 SW 13.8 W 0.0 989.0
11:45 15.9 62.6 1012.5 5.3 SE 12.0 ENE 0.0 1007.0
11:50 16.2 61.7 1012.5 5.0 E 11.6 SSE 0.0 987.0
11:55 16.5 61.1 1012.4 5.9 ENE 15.2 NE 0.0 999.0
12:00 16.6 57.1 1012.4 6.5 SW 19.1 E 0.0 1004.0
Màxima 16.6 99.8 1013.0 11.8 WSW 32.5 W 0.1 1007.0
Mínima 7.4 57.1 1010.7
Total 0.1